sensor_id;sensor_type;location;lat;lon;timestamp;P1;durP1;ratioP1;P2;durP2;ratioP2
35562;SDS011;21665;40.108;18.302;2023-02-11T00:01:47;36.53;;;27.88;;
35562;SDS011;21665;40.108;18.302;2023-02-11T00:04:14;33.50;;;28.80;;
35562;SDS011;21665;40.108;18.302;2023-02-11T00:06:41;40.00;;;31.38;;
35562;SDS011;21665;40.108;18.302;2023-02-11T00:09:08;42.85;;;30.92;;
35562;SDS011;21665;40.108;18.302;2023-02-11T00:11:35;38.97;;;31.45;;
35562;SDS011;21665;40.108;18.302;2023-02-11T00:14:03;44.05;;;30.42;;
35562;SDS011;21665;40.108;18.302;2023-02-11T00:16:32;37.53;;;30.23;;
35562;SDS011;21665;40.108;18.302;2023-02-11T00:19:00;38.10;;;29.95;;
35562;SDS011;21665;40.108;18.302;2023-02-11T00:21:28;34.20;;;29.40;;
35562;SDS011;21665;40.108;18.302;2023-02-11T00:23:56;43.35;;;28.95;;
35562;SDS011;21665;40.108;18.302;2023-02-11T00:26:29;36.13;;;28.75;;
35562;SDS011;21665;40.108;18.302;2023-02-11T00:28:58;41.30;;;28.27;;
35562;SDS011;21665;40.108;18.302;2023-02-11T00:31:26;36.25;;;28.52;;
35562;SDS011;21665;40.108;18.302;2023-02-11T00:33:56;41.80;;;30.88;;
35562;SDS011;21665;40.108;18.302;2023-02-11T00:36:24;48.03;;;31.80;;
35562;SDS011;21665;40.108;18.302;2023-02-11T00:38:52;54.08;;;34.17;;
35562;SDS011;21665;40.108;18.302;2023-02-11T00:41:20;49.53;;;33.63;;
35562;SDS011;21665;40.108;18.302;2023-02-11T00:43:47;44.08;;;33.90;;
35562;SDS011;21665;40.108;18.302;2023-02-11T00:46:15;52.47;;;34.50;;
35562;SDS011;21665;40.108;18.302;2023-02-11T00:48:41;45.15;;;33.20;;
35562;SDS011;21665;40.108;18.302;2023-02-11T00:51:09;48.35;;;34.30;;
35562;SDS011;21665;40.108;18.302;2023-02-11T00:53:36;45.05;;;33.22;;
35562;SDS011;21665;40.108;18.302;2023-02-11T00:56:03;45.85;;;32.85;;
35562;SDS011;21665;40.108;18.302;2023-02-11T00:58:30;44.53;;;31.90;;
35562;SDS011;21665;40.108;18.302;2023-02-11T01:00:57;43.47;;;31.95;;
35562;SDS011;21665;40.108;18.302;2023-02-11T01:03:23;39.30;;;31.10;;
35562;SDS011;21665;40.108;18.302;2023-02-11T01:05:50;44.45;;;31.92;;
35562;SDS011;21665;40.108;18.302;2023-02-11T01:08:18;44.65;;;31.45;;
35562;SDS011;21665;40.108;18.302;2023-02-11T01:10:54;40.92;;;30.48;;
35562;SDS011;21665;40.108;18.302;2023-02-11T01:13:24;42.35;;;31.10;;
35562;SDS011;21665;40.108;18.302;2023-02-11T01:15:53;36.88;;;29.13;;
35562;SDS011;21665;40.108;18.302;2023-02-11T01:18:21;38.08;;;28.75;;
35562;SDS011;21665;40.108;18.302;2023-02-11T01:20:49;39.75;;;29.83;;
35562;SDS011;21665;40.108;18.302;2023-02-11T01:23:19;43.88;;;30.90;;
35562;SDS011;21665;40.108;18.302;2023-02-11T01:25:46;40.58;;;30.05;;
35562;SDS011;21665;40.108;18.302;2023-02-11T01:28:17;42.75;;;29.65;;
35562;SDS011;21665;40.108;18.302;2023-02-11T01:30:51;38.25;;;29.70;;
35562;SDS011;21665;40.108;18.302;2023-02-11T01:33:18;45.70;;;30.58;;
35562;SDS011;21665;40.108;18.302;2023-02-11T01:35:45;45.78;;;31.15;;
35562;SDS011;21665;40.108;18.302;2023-02-11T01:38:16;41.13;;;31.27;;
35562;SDS011;21665;40.108;18.302;2023-02-11T01:43:26;49.47;;;30.48;;
35562;SDS011;21665;40.108;18.302;2023-02-11T01:45:58;44.17;;;32.10;;
35562;SDS011;21665;40.108;18.302;2023-02-11T01:48:27;44.78;;;32.30;;
35562;SDS011;21665;40.108;18.302;2023-02-11T01:51:00;50.38;;;32.95;;
35562;SDS011;21665;40.108;18.302;2023-02-11T01:53:54;51.42;;;32.95;;
35562;SDS011;21665;40.108;18.302;2023-02-11T01:56:41;62.40;;;37.42;;
35562;SDS011;21665;40.108;18.302;2023-02-11T01:59:35;69.63;;;39.88;;
35562;SDS011;21665;40.108;18.302;2023-02-11T02:02:12;67.07;;;40.13;;
35562;SDS011;21665;40.108;18.302;2023-02-11T02:04:47;66.00;;;39.85;;
35562;SDS011;21665;40.108;18.302;2023-02-11T02:07:36;59.90;;;36.85;;
35562;SDS011;21665;40.108;18.302;2023-02-11T02:10:16;59.00;;;37.45;;
35562;SDS011;21665;40.108;18.302;2023-02-11T02:12:46;81.53;;;42.67;;
35562;SDS011;21665;40.108;18.302;2023-02-11T02:15:18;68.05;;;39.45;;
35562;SDS011;21665;40.108;18.302;2023-02-11T02:18:06;55.92;;;36.17;;
35562;SDS011;21665;40.108;18.302;2023-02-11T02:34:40;58.30;;;37.60;;
35562;SDS011;21665;40.108;18.302;2023-02-11T02:40:20;61.00;;;36.75;;
35562;SDS011;21665;40.108;18.302;2023-02-11T02:42:52;53.78;;;36.08;;
35562;SDS011;21665;40.108;18.302;2023-02-11T02:45:20;53.45;;;34.42;;
35562;SDS011;21665;40.108;18.302;2023-02-11T02:47:47;52.85;;;32.47;;
35562;SDS011;21665;40.108;18.302;2023-02-11T02:50:14;49.50;;;33.55;;
35562;SDS011;21665;40.108;18.302;2023-02-11T02:55:33;50.72;;;33.03;;
35562;SDS011;21665;40.108;18.302;2023-02-11T02:58:22;44.60;;;29.13;;
35562;SDS011;21665;40.108;18.302;2023-02-11T03:01:19;48.70;;;31.40;;
35562;SDS011;21665;40.108;18.302;2023-02-11T03:04:04;43.35;;;28.95;;
35562;SDS011;21665;40.108;18.302;2023-02-11T03:06:45;43.78;;;27.58;;
35562;SDS011;21665;40.108;18.302;2023-02-11T03:09:32;38.13;;;27.35;;
35562;SDS011;21665;40.108;18.302;2023-02-11T03:12:08;38.22;;;26.38;;
35562;SDS011;21665;40.108;18.302;2023-02-11T03:14:37;41.00;;;27.70;;
35562;SDS011;21665;40.108;18.302;2023-02-11T03:17:06;39.88;;;28.20;;
35562;SDS011;21665;40.108;18.302;2023-02-11T03:19:38;36.15;;;25.70;;
35562;SDS011;21665;40.108;18.302;2023-02-11T03:22:19;34.15;;;25.77;;
35562;SDS011;21665;40.108;18.302;2023-02-11T03:24:54;35.05;;;25.35;;
35562;SDS011;21665;40.108;18.302;2023-02-11T03:27:31;33.38;;;23.95;;
35562;SDS011;21665;40.108;18.302;2023-02-11T03:30:15;34.15;;;25.42;;
35562;SDS011;21665;40.108;18.302;2023-02-11T03:33:04;36.03;;;25.27;;
35562;SDS011;21665;40.108;18.302;2023-02-11T03:35:46;32.00;;;24.00;;
35562;SDS011;21665;40.108;18.302;2023-02-11T03:38:20;32.40;;;23.58;;
35562;SDS011;21665;40.108;18.302;2023-02-11T03:40:53;35.53;;;25.05;;
35562;SDS011;21665;40.108;18.302;2023-02-11T03:43:39;31.80;;;23.02;;
35562;SDS011;21665;40.108;18.302;2023-02-11T03:46:09;32.78;;;23.98;;
35562;SDS011;21665;40.108;18.302;2023-02-11T03:48:43;35.72;;;24.05;;
35562;SDS011;21665;40.108;18.302;2023-02-11T03:51:13;40.95;;;23.20;;
35562;SDS011;21665;40.108;18.302;2023-02-11T03:53:42;40.03;;;22.50;;
35562;SDS011;21665;40.108;18.302;2023-02-11T03:56:15;36.65;;;23.55;;
35562;SDS011;21665;40.108;18.302;2023-02-11T03:58:46;36.78;;;23.63;;
35562;SDS011;21665;40.108;18.302;2023-02-11T04:01:14;35.42;;;24.05;;
35562;SDS011;21665;40.108;18.302;2023-02-11T04:03:40;38.35;;;24.48;;
35562;SDS011;21665;40.108;18.302;2023-02-11T04:06:07;37.65;;;24.80;;
35562;SDS011;21665;40.108;18.302;2023-02-11T04:08:34;40.40;;;25.02;;
35562;SDS011;21665;40.108;18.302;2023-02-11T04:11:04;40.13;;;25.05;;
35562;SDS011;21665;40.108;18.302;2023-02-11T04:13:32;45.00;;;26.45;;
35562;SDS011;21665;40.108;18.302;2023-02-11T04:15:59;46.33;;;26.83;;
35562;SDS011;21665;40.108;18.302;2023-02-11T04:18:26;45.35;;;26.95;;
35562;SDS011;21665;40.108;18.302;2023-02-11T04:20:53;40.22;;;26.42;;
35562;SDS011;21665;40.108;18.302;2023-02-11T04:23:19;43.38;;;26.70;;
35562;SDS011;21665;40.108;18.302;2023-02-11T04:25:46;46.65;;;27.08;;
35562;SDS011;21665;40.108;18.302;2023-02-11T04:28:13;48.50;;;26.02;;
35562;SDS011;21665;40.108;18.302;2023-02-11T04:30:40;48.58;;;25.20;;
35562;SDS011;21665;40.108;18.302;2023-02-11T04:33:07;42.30;;;24.52;;
35562;SDS011;21665;40.108;18.302;2023-02-11T04:35:33;41.05;;;24.33;;
35562;SDS011;21665;40.108;18.302;2023-02-11T04:38:00;41.42;;;23.92;;
35562;SDS011;21665;40.108;18.302;2023-02-11T04:40:27;44.60;;;23.85;;
35562;SDS011;21665;40.108;18.302;2023-02-11T04:42:53;42.97;;;23.23;;
35562;SDS011;21665;40.108;18.302;2023-02-11T04:45:20;40.72;;;23.15;;
35562;SDS011;21665;40.108;18.302;2023-02-11T04:47:47;45.92;;;22.73;;
35562;SDS011;21665;40.108;18.302;2023-02-11T04:50:14;36.47;;;22.83;;
35562;SDS011;21665;40.108;18.302;2023-02-11T04:52:41;45.13;;;22.70;;
35562;SDS011;21665;40.108;18.302;2023-02-11T04:55:08;38.45;;;23.40;;
35562;SDS011;21665;40.108;18.302;2023-02-11T04:57:34;34.40;;;21.15;;
35562;SDS011;21665;40.108;18.302;2023-02-11T05:00:01;39.53;;;21.58;;
35562;SDS011;21665;40.108;18.302;2023-02-11T05:02:29;41.17;;;23.58;;
35562;SDS011;21665;40.108;18.302;2023-02-11T05:04:56;41.25;;;21.35;;
35562;SDS011;21665;40.108;18.302;2023-02-11T05:07:23;36.25;;;21.77;;
35562;SDS011;21665;40.108;18.302;2023-02-11T05:09:50;39.53;;;22.20;;
35562;SDS011;21665;40.108;18.302;2023-02-11T05:12:17;45.25;;;22.95;;
35562;SDS011;21665;40.108;18.302;2023-02-11T05:14:43;41.70;;;22.67;;
35562;SDS011;21665;40.108;18.302;2023-02-11T05:17:10;45.17;;;23.67;;
35562;SDS011;21665;40.108;18.302;2023-02-11T05:19:37;45.53;;;23.02;;
35562;SDS011;21665;40.108;18.302;2023-02-11T05:22:03;46.28;;;23.85;;
35562;SDS011;21665;40.108;18.302;2023-02-11T05:24:31;46.15;;;24.08;;
35562;SDS011;21665;40.108;18.302;2023-02-11T05:26:58;45.75;;;23.65;;
35562;SDS011;21665;40.108;18.302;2023-02-11T05:29:25;56.78;;;24.20;;
35562;SDS011;21665;40.108;18.302;2023-02-11T05:31:52;41.35;;;23.27;;
35562;SDS011;21665;40.108;18.302;2023-02-11T05:34:19;45.13;;;23.67;;
35562;SDS011;21665;40.108;18.302;2023-02-11T05:36:46;42.25;;;23.73;;
35562;SDS011;21665;40.108;18.302;2023-02-11T05:39:12;40.08;;;22.35;;
35562;SDS011;21665;40.108;18.302;2023-02-11T05:41:39;44.53;;;23.60;;
35562;SDS011;21665;40.108;18.302;2023-02-11T05:44:06;43.95;;;23.85;;
35562;SDS011;21665;40.108;18.302;2023-02-11T05:46:32;42.10;;;22.75;;
35562;SDS011;21665;40.108;18.302;2023-02-11T05:48:59;44.00;;;25.50;;
35562;SDS011;21665;40.108;18.302;2023-02-11T05:51:26;48.42;;;23.20;;
35562;SDS011;21665;40.108;18.302;2023-02-11T05:53:53;48.83;;;23.33;;
35562;SDS011;21665;40.108;18.302;2023-02-11T05:56:20;42.20;;;25.05;;
35562;SDS011;21665;40.108;18.302;2023-02-11T05:58:46;44.17;;;27.85;;
35562;SDS011;21665;40.108;18.302;2023-02-11T06:01:13;49.70;;;27.85;;
35562;SDS011;21665;40.108;18.302;2023-02-11T06:03:40;40.83;;;25.45;;
35562;SDS011;21665;40.108;18.302;2023-02-11T06:06:10;46.15;;;27.70;;
35562;SDS011;21665;40.108;18.302;2023-02-11T06:08:38;47.17;;;26.50;;
35562;SDS011;21665;40.108;18.302;2023-02-11T06:11:05;54.78;;;27.85;;
35562;SDS011;21665;40.108;18.302;2023-02-11T06:13:32;50.97;;;27.88;;
35562;SDS011;21665;40.108;18.302;2023-02-11T06:16:00;44.42;;;26.42;;
35562;SDS011;21665;40.108;18.302;2023-02-11T06:18:28;43.13;;;26.23;;
35562;SDS011;21665;40.108;18.302;2023-02-11T06:20:55;80.32;;;32.85;;
35562;SDS011;21665;40.108;18.302;2023-02-11T06:23:21;75.55;;;31.95;;
35562;SDS011;21665;40.108;18.302;2023-02-11T06:25:48;53.05;;;27.70;;
35562;SDS011;21665;40.108;18.302;2023-02-11T06:28:15;44.88;;;25.75;;
35562;SDS011;21665;40.108;18.302;2023-02-11T06:30:42;46.33;;;25.80;;
35562;SDS011;21665;40.108;18.302;2023-02-11T06:33:09;56.55;;;28.45;;
35562;SDS011;21665;40.108;18.302;2023-02-11T06:35:38;50.40;;;26.73;;
35562;SDS011;21665;40.108;18.302;2023-02-11T06:38:07;49.17;;;26.52;;
35562;SDS011;21665;40.108;18.302;2023-02-11T06:40:33;65.15;;;29.35;;
35562;SDS011;21665;40.108;18.302;2023-02-11T06:45:43;44.20;;;22.92;;
35562;SDS011;21665;40.108;18.302;2023-02-11T06:48:10;46.17;;;23.33;;
35562;SDS011;21665;40.108;18.302;2023-02-11T06:50:40;42.30;;;23.80;;
35562;SDS011;21665;40.108;18.302;2023-02-11T06:53:09;52.47;;;27.52;;
35562;SDS011;21665;40.108;18.302;2023-02-11T06:55:36;38.40;;;25.50;;
35562;SDS011;21665;40.108;18.302;2023-02-11T06:58:03;44.25;;;26.08;;
35562;SDS011;21665;40.108;18.302;2023-02-11T07:00:30;44.03;;;27.02;;
35562;SDS011;21665;40.108;18.302;2023-02-11T07:02:57;38.83;;;28.75;;
35562;SDS011;21665;40.108;18.302;2023-02-11T07:05:28;51.58;;;32.45;;
35562;SDS011;21665;40.108;18.302;2023-02-11T07:07:55;41.47;;;31.02;;
35562;SDS011;21665;40.108;18.302;2023-02-11T07:10:22;40.35;;;32.60;;
35562;SDS011;21665;40.108;18.302;2023-02-11T07:12:49;38.22;;;33.15;;
35562;SDS011;21665;40.108;18.302;2023-02-11T07:15:16;47.97;;;35.97;;
35562;SDS011;21665;40.108;18.302;2023-02-11T07:17:42;49.95;;;35.90;;
35562;SDS011;21665;40.108;18.302;2023-02-11T07:20:10;58.42;;;38.53;;
35562;SDS011;21665;40.108;18.302;2023-02-11T07:22:39;37.60;;;33.47;;
35562;SDS011;21665;40.108;18.302;2023-02-11T07:25:06;42.08;;;34.50;;
35562;SDS011;21665;40.108;18.302;2023-02-11T07:27:33;40.90;;;33.60;;
35562;SDS011;21665;40.108;18.302;2023-02-11T07:30:00;42.78;;;34.10;;
35562;SDS011;21665;40.108;18.302;2023-02-11T07:32:27;42.80;;;33.03;;
35562;SDS011;21665;40.108;18.302;2023-02-11T07:34:54;40.20;;;32.55;;
35562;SDS011;21665;40.108;18.302;2023-02-11T07:37:21;41.33;;;32.35;;
35562;SDS011;21665;40.108;18.302;2023-02-11T07:39:48;40.38;;;31.42;;
35562;SDS011;21665;40.108;18.302;2023-02-11T07:42:14;42.72;;;33.10;;
35562;SDS011;21665;40.108;18.302;2023-02-11T07:44:41;39.53;;;32.38;;
35562;SDS011;21665;40.108;18.302;2023-02-11T07:47:08;44.22;;;33.13;;
35562;SDS011;21665;40.108;18.302;2023-02-11T07:49:35;42.75;;;33.72;;
35562;SDS011;21665;40.108;18.302;2023-02-11T07:52:02;38.60;;;33.22;;
35562;SDS011;21665;40.108;18.302;2023-02-11T07:54:28;42.40;;;34.85;;
35562;SDS011;21665;40.108;18.302;2023-02-11T07:56:55;49.17;;;39.08;;
35562;SDS011;21665;40.108;18.302;2023-02-11T07:59:23;43.70;;;36.83;;
35562;SDS011;21665;40.108;18.302;2023-02-11T08:01:50;38.80;;;34.28;;
35562;SDS011;21665;40.108;18.302;2023-02-11T08:04:17;41.95;;;34.83;;
35562;SDS011;21665;40.108;18.302;2023-02-11T08:06:44;41.53;;;33.30;;
35562;SDS011;21665;40.108;18.302;2023-02-11T08:09:13;35.55;;;31.70;;
35562;SDS011;21665;40.108;18.302;2023-02-11T08:11:41;38.78;;;33.25;;
35562;SDS011;21665;40.108;18.302;2023-02-11T08:14:09;38.33;;;30.98;;
35562;SDS011;21665;40.108;18.302;2023-02-11T08:16:36;38.47;;;30.95;;
35562;SDS011;21665;40.108;18.302;2023-02-11T08:19:04;39.45;;;30.55;;
35562;SDS011;21665;40.108;18.302;2023-02-11T08:21:35;43.65;;;30.80;;
35562;SDS011;21665;40.108;18.302;2023-02-11T08:24:02;38.05;;;29.45;;
35562;SDS011;21665;40.108;18.302;2023-02-11T08:26:29;38.70;;;32.63;;
35562;SDS011;21665;40.108;18.302;2023-02-11T08:28:59;37.60;;;30.05;;
35562;SDS011;21665;40.108;18.302;2023-02-11T08:31:40;43.90;;;30.13;;
35562;SDS011;21665;40.108;18.302;2023-02-11T08:34:08;40.03;;;29.83;;
35562;SDS011;21665;40.108;18.302;2023-02-11T08:36:36;39.38;;;29.05;;
35562;SDS011;21665;40.108;18.302;2023-02-11T08:39:05;35.30;;;28.90;;
35562;SDS011;21665;40.108;18.302;2023-02-11T08:41:37;40.25;;;30.40;;
35562;SDS011;21665;40.108;18.302;2023-02-11T08:44:03;40.50;;;29.23;;
35562;SDS011;21665;40.108;18.302;2023-02-11T08:46:30;39.47;;;29.27;;
35562;SDS011;21665;40.108;18.302;2023-02-11T08:48:57;35.17;;;28.38;;
35562;SDS011;21665;40.108;18.302;2023-02-11T08:51:32;35.90;;;28.55;;
35562;SDS011;21665;40.108;18.302;2023-02-11T08:56:40;33.88;;;29.33;;
35562;SDS011;21665;40.108;18.302;2023-02-11T08:59:07;41.35;;;30.08;;
35562;SDS011;21665;40.108;18.302;2023-02-11T09:04:41;34.17;;;28.85;;
35562;SDS011;21665;40.108;18.302;2023-02-11T09:07:08;40.20;;;29.27;;
35562;SDS011;21665;40.108;18.302;2023-02-11T09:09:34;43.22;;;29.30;;
35562;SDS011;21665;40.108;18.302;2023-02-11T09:12:01;38.00;;;31.13;;
35562;SDS011;21665;40.108;18.302;2023-02-11T09:14:27;36.65;;;30.33;;
35562;SDS011;21665;40.108;18.302;2023-02-11T09:16:54;35.25;;;28.88;;
35562;SDS011;21665;40.108;18.302;2023-02-11T09:19:22;32.78;;;28.70;;
35562;SDS011;21665;40.108;18.302;2023-02-11T09:21:48;31.70;;;28.45;;
35562;SDS011;21665;40.108;18.302;2023-02-11T09:24:15;32.95;;;29.38;;
35562;SDS011;21665;40.108;18.302;2023-02-11T09:26:43;32.83;;;28.27;;
35562;SDS011;21665;40.108;18.302;2023-02-11T09:29:10;31.77;;;28.33;;
35562;SDS011;21665;40.108;18.302;2023-02-11T09:31:37;36.40;;;29.58;;
35562;SDS011;21665;40.108;18.302;2023-02-11T09:34:04;36.97;;;29.42;;
35562;SDS011;21665;40.108;18.302;2023-02-11T09:36:34;34.50;;;30.65;;
35562;SDS011;21665;40.108;18.302;2023-02-11T09:39:04;32.72;;;29.30;;
35562;SDS011;21665;40.108;18.302;2023-02-11T09:45:23;29.05;;;26.02;;
35562;SDS011;21665;40.108;18.302;2023-02-11T09:55:31;23.88;;;21.63;;
35562;SDS011;21665;40.108;18.302;2023-02-11T09:58:06;23.77;;;21.42;;
35562;SDS011;21665;40.108;18.302;2023-02-11T10:11:30;25.15;;;22.63;;
35562;SDS011;21665;40.108;18.302;2023-02-11T10:14:02;24.77;;;22.13;;
35562;SDS011;21665;40.108;18.302;2023-02-11T10:16:50;25.75;;;22.23;;
35562;SDS011;21665;40.108;18.302;2023-02-11T10:19:52;25.58;;;22.77;;
35562;SDS011;21665;40.108;18.302;2023-02-11T10:22:42;24.23;;;22.02;;
35562;SDS011;21665;40.108;18.302;2023-02-11T10:25:26;25.15;;;22.45;;
35562;SDS011;21665;40.108;18.302;2023-02-11T10:27:54;25.38;;;22.33;;
35562;SDS011;21665;40.108;18.302;2023-02-11T10:30:39;25.80;;;23.17;;
35562;SDS011;21665;40.108;18.302;2023-02-11T10:33:46;24.50;;;22.10;;
35562;SDS011;21665;40.108;18.302;2023-02-11T10:36:17;25.13;;;22.55;;
35562;SDS011;21665;40.108;18.302;2023-02-11T10:38:48;23.77;;;21.67;;
35562;SDS011;21665;40.108;18.302;2023-02-11T10:41:16;24.67;;;22.25;;
35562;SDS011;21665;40.108;18.302;2023-02-11T10:43:50;25.25;;;22.45;;
35562;SDS011;21665;40.108;18.302;2023-02-11T10:46:19;25.17;;;22.77;;
35562;SDS011;21665;40.108;18.302;2023-02-11T10:48:52;24.13;;;21.95;;
35562;SDS011;21665;40.108;18.302;2023-02-11T10:51:23;26.13;;;23.38;;
35562;SDS011;21665;40.108;18.302;2023-02-11T10:56:39;24.92;;;22.58;;
35562;SDS011;21665;40.108;18.302;2023-02-11T10:59:33;23.77;;;21.42;;
35562;SDS011;21665;40.108;18.302;2023-02-11T11:05:13;25.55;;;23.13;;
35562;SDS011;21665;40.108;18.302;2023-02-11T11:07:56;25.15;;;22.63;;
35562;SDS011;21665;40.108;18.302;2023-02-11T11:10:45;25.42;;;23.17;;
35562;SDS011;21665;40.108;18.302;2023-02-11T11:13:25;25.35;;;22.85;;
35562;SDS011;21665;40.108;18.302;2023-02-11T11:18:43;25.52;;;23.17;;
35562;SDS011;21665;40.108;18.302;2023-02-11T11:21:13;26.20;;;23.48;;
35562;SDS011;21665;40.108;18.302;2023-02-11T11:23:47;29.88;;;22.80;;
35562;SDS011;21665;40.108;18.302;2023-02-11T11:26:22;25.90;;;22.80;;
35562;SDS011;21665;40.108;18.302;2023-02-11T11:29:15;25.98;;;23.42;;
35562;SDS011;21665;40.108;18.302;2023-02-11T11:31:47;25.38;;;22.98;;
35562;SDS011;21665;40.108;18.302;2023-02-11T11:34:26;25.67;;;23.25;;
35562;SDS011;21665;40.108;18.302;2023-02-11T11:36:56;24.95;;;22.73;;
35562;SDS011;21665;40.108;18.302;2023-02-11T11:39:26;28.88;;;24.65;;
35562;SDS011;21665;40.108;18.302;2023-02-11T11:44:39;26.48;;;23.77;;
35562;SDS011;21665;40.108;18.302;2023-02-11T11:53:03;26.17;;;23.50;;
35562;SDS011;21665;40.108;18.302;2023-02-11T11:55:44;27.27;;;24.33;;
35562;SDS011;21665;40.108;18.302;2023-02-11T11:58:25;31.25;;;24.50;;
35562;SDS011;21665;40.108;18.302;2023-02-11T12:06:25;27.55;;;24.65;;
35562;SDS011;21665;40.108;18.302;2023-02-11T12:12:12;28.65;;;24.02;;
35562;SDS011;21665;40.108;18.302;2023-02-11T12:17:55;26.90;;;24.25;;
35562;SDS011;21665;40.108;18.302;2023-02-11T12:23:04;27.67;;;24.77;;
35562;SDS011;21665;40.108;18.302;2023-02-11T12:37:27;33.22;;;27.05;;
35562;SDS011;21665;40.108;18.302;2023-02-11T12:40:16;31.60;;;25.30;;
35562;SDS011;21665;40.108;18.302;2023-02-11T12:42:46;28.48;;;25.52;;
35562;SDS011;21665;40.108;18.302;2023-02-11T12:48:12;31.45;;;25.10;;
35562;SDS011;21665;40.108;18.302;2023-02-11T12:51:00;29.52;;;26.52;;
35562;SDS011;21665;40.108;18.302;2023-02-11T12:53:42;27.38;;;24.50;;
35562;SDS011;21665;40.108;18.302;2023-02-11T12:56:18;29.45;;;25.95;;
35562;SDS011;21665;40.108;18.302;2023-02-11T12:59:06;28.50;;;25.48;;
35562;SDS011;21665;40.108;18.302;2023-02-11T13:01:44;30.77;;;25.60;;
35562;SDS011;21665;40.108;18.302;2023-02-11T13:04:20;29.92;;;26.67;;
35562;SDS011;21665;40.108;18.302;2023-02-11T13:06:56;30.15;;;26.85;;
35562;SDS011;21665;40.108;18.302;2023-02-11T13:10:15;29.73;;;26.63;;
35562;SDS011;21665;40.108;18.302;2023-02-11T16:31:36;45.50;;;34.22;;
35562;SDS011;21665;40.108;18.302;2023-02-11T16:34:09;46.05;;;34.80;;
35562;SDS011;21665;40.108;18.302;2023-02-11T16:36:38;65.43;;;49.08;;
35562;SDS011;21665;40.108;18.302;2023-02-11T16:39:05;67.38;;;49.42;;
35562;SDS011;21665;40.108;18.302;2023-02-11T16:41:32;62.05;;;50.95;;
35562;SDS011;21665;40.108;18.302;2023-02-11T16:43:59;65.10;;;47.88;;
35562;SDS011;21665;40.108;18.302;2023-02-11T16:46:26;53.72;;;41.10;;
35562;SDS011;21665;40.108;18.302;2023-02-11T16:48:53;63.05;;;42.13;;
35562;SDS011;21665;40.108;18.302;2023-02-11T16:51:21;62.08;;;43.45;;
35562;SDS011;21665;40.108;18.302;2023-02-11T16:53:47;63.45;;;46.33;;
35562;SDS011;21665;40.108;18.302;2023-02-11T16:56:15;52.15;;;38.63;;
35562;SDS011;21665;40.108;18.302;2023-02-11T16:58:43;44.58;;;36.50;;
35562;SDS011;21665;40.108;18.302;2023-02-11T17:01:10;50.90;;;38.22;;
35562;SDS011;21665;40.108;18.302;2023-02-11T17:03:37;54.97;;;42.35;;
35562;SDS011;21665;40.108;18.302;2023-02-11T17:06:08;61.15;;;44.67;;
35562;SDS011;21665;40.108;18.302;2023-02-11T17:08:37;62.30;;;46.38;;
35562;SDS011;21665;40.108;18.302;2023-02-11T17:11:05;57.53;;;43.05;;
35562;SDS011;21665;40.108;18.302;2023-02-11T17:13:31;51.22;;;41.03;;
35562;SDS011;21665;40.108;18.302;2023-02-11T17:15:58;55.90;;;40.25;;
35562;SDS011;21665;40.108;18.302;2023-02-11T17:18:25;57.35;;;37.20;;
35562;SDS011;21665;40.108;18.302;2023-02-11T17:20:52;55.08;;;39.58;;
35562;SDS011;21665;40.108;18.302;2023-02-11T17:23:19;66.88;;;49.22;;
35562;SDS011;21665;40.108;18.302;2023-02-11T17:25:46;54.03;;;43.53;;
35562;SDS011;21665;40.108;18.302;2023-02-11T17:28:22;55.45;;;38.95;;
35562;SDS011;21665;40.108;18.302;2023-02-11T17:30:49;58.25;;;40.58;;
35562;SDS011;21665;40.108;18.302;2023-02-11T17:33:16;56.38;;;40.15;;
35562;SDS011;21665;40.108;18.302;2023-02-11T17:35:43;56.30;;;39.40;;
35562;SDS011;21665;40.108;18.302;2023-02-11T17:38:11;48.42;;;36.55;;
35562;SDS011;21665;40.108;18.302;2023-02-11T17:40:38;47.45;;;36.45;;
35562;SDS011;21665;40.108;18.302;2023-02-11T17:43:05;56.72;;;37.28;;
35562;SDS011;21665;40.108;18.302;2023-02-11T17:45:31;50.13;;;35.92;;
35562;SDS011;21665;40.108;18.302;2023-02-11T17:47:58;51.25;;;37.65;;
35562;SDS011;21665;40.108;18.302;2023-02-11T17:50:25;48.75;;;34.55;;
35562;SDS011;21665;40.108;18.302;2023-02-11T17:52:52;49.65;;;36.53;;
35562;SDS011;21665;40.108;18.302;2023-02-11T17:55:22;49.88;;;35.80;;
35562;SDS011;21665;40.108;18.302;2023-02-11T17:57:49;44.63;;;30.88;;
35562;SDS011;21665;40.108;18.302;2023-02-11T18:00:16;51.08;;;32.13;;
35562;SDS011;21665;40.108;18.302;2023-02-11T18:02:44;51.42;;;33.15;;
35562;SDS011;21665;40.108;18.302;2023-02-11T18:08:04;59.33;;;36.67;;
35562;SDS011;21665;40.108;18.302;2023-02-11T18:10:32;81.30;;;36.78;;
35562;SDS011;21665;40.108;18.302;2023-02-11T18:13:00;68.25;;;38.35;;
35562;SDS011;21665;40.108;18.302;2023-02-11T18:15:27;67.25;;;41.38;;
35562;SDS011;21665;40.108;18.302;2023-02-11T18:17:55;78.75;;;42.30;;
35562;SDS011;21665;40.108;18.302;2023-02-11T18:20:22;62.83;;;38.03;;
35562;SDS011;21665;40.108;18.302;2023-02-11T18:22:49;86.55;;;55.40;;
35562;SDS011;21665;40.108;18.302;2023-02-11T18:25:19;68.55;;;41.35;;
35562;SDS011;21665;40.108;18.302;2023-02-11T18:27:45;66.22;;;40.63;;
35562;SDS011;21665;40.108;18.302;2023-02-11T18:30:13;62.40;;;39.47;;
35562;SDS011;21665;40.108;18.302;2023-02-11T18:32:43;92.78;;;51.75;;
35562;SDS011;21665;40.108;18.302;2023-02-11T18:35:10;77.60;;;43.08;;
35562;SDS011;21665;40.108;18.302;2023-02-11T18:37:40;73.57;;;45.75;;
35562;SDS011;21665;40.108;18.302;2023-02-11T18:40:07;63.83;;;41.85;;
35562;SDS011;21665;40.108;18.302;2023-02-11T18:42:35;75.43;;;42.50;;
35562;SDS011;21665;40.108;18.302;2023-02-11T18:45:03;80.30;;;45.70;;
35562;SDS011;21665;40.108;18.302;2023-02-11T18:47:38;84.55;;;47.97;;
35562;SDS011;21665;40.108;18.302;2023-02-11T18:50:07;82.18;;;47.47;;
35562;SDS011;21665;40.108;18.302;2023-02-11T18:52:34;73.85;;;47.95;;
35562;SDS011;21665;40.108;18.302;2023-02-11T18:55:04;68.75;;;38.55;;
35562;SDS011;21665;40.108;18.302;2023-02-11T18:57:32;64.30;;;39.50;;
35562;SDS011;21665;40.108;18.302;2023-02-11T18:59:59;64.47;;;39.22;;
35562;SDS011;21665;40.108;18.302;2023-02-11T19:02:26;63.55;;;39.33;;
35562;SDS011;21665;40.108;18.302;2023-02-11T19:04:54;66.82;;;41.00;;
35562;SDS011;21665;40.108;18.302;2023-02-11T19:07:21;80.95;;;44.50;;
35562;SDS011;21665;40.108;18.302;2023-02-11T19:09:49;78.07;;;44.42;;
35562;SDS011;21665;40.108;18.302;2023-02-11T19:12:19;71.18;;;40.55;;
35562;SDS011;21665;40.108;18.302;2023-02-11T19:14:46;67.00;;;41.05;;
35562;SDS011;21665;40.108;18.302;2023-02-11T19:17:13;63.63;;;40.22;;
35562;SDS011;21665;40.108;18.302;2023-02-11T19:19:39;79.00;;;42.15;;
35562;SDS011;21665;40.108;18.302;2023-02-11T19:22:06;67.85;;;44.47;;
35562;SDS011;21665;40.108;18.302;2023-02-11T19:24:33;75.28;;;46.10;;
35562;SDS011;21665;40.108;18.302;2023-02-11T19:27:02;69.75;;;42.78;;
35562;SDS011;21665;40.108;18.302;2023-02-11T19:29:30;86.70;;;48.10;;